createdAt,value
2017-03-01T00:00:25.455Z,32
2017-03-01T00:02:58.039Z,32
2017-03-01T00:05:30.767Z,27
2017-03-01T00:08:03.773Z,30
2017-03-01T00:10:36.267Z,1
2017-03-01T00:13:08.768Z,0
2017-03-01T00:15:41.240Z,0
2017-03-01T00:18:13.743Z,0
2017-03-01T00:20:46.281Z,0
2017-03-01T00:23:18.886Z,0
2017-03-01T00:25:52.016Z,0
2017-03-01T00:28:24.695Z,0
2017-03-01T00:30:57.293Z,0
2017-03-01T00:33:29.763Z,0
2017-03-01T00:36:02.263Z,0
2017-03-01T00:38:34.764Z,0
2017-03-01T00:41:07.254Z,0
2017-03-01T00:43:39.756Z,0
2017-03-01T00:46:12.242Z,0
2017-03-01T00:48:45.114Z,0
2017-03-01T00:51:17.705Z,0
2017-03-01T00:53:50.194Z,0
2017-03-01T00:56:22.683Z,0
2017-03-01T00:58:55.175Z,0
2017-03-01T01:01:27.672Z,0
2017-03-01T01:04:00.152Z,0
2017-03-01T01:06:32.960Z,0
2017-03-01T01:09:05.668Z,0
2017-03-01T01:11:38.166Z,0
2017-03-01T01:14:10.657Z,0
2017-03-01T01:16:43.678Z,0
2017-03-01T01:19:16.384Z,0
2017-03-01T01:21:49.585Z,0
2017-03-01T01:24:22.083Z,0
2017-03-01T01:26:55.004Z,0
2017-03-01T01:29:27.986Z,0
2017-03-01T01:32:00.487Z,0
2017-03-01T01:34:33.344Z,0
2017-03-01T01:37:06.163Z,0
2017-03-01T01:39:38.663Z,0
2017-03-01T01:42:11.571Z,0
2017-03-01T01:44:44.051Z,0
2017-03-01T01:47:16.974Z,0
2017-03-01T01:49:49.875Z,0
2017-03-01T01:52:22.352Z,0
2017-03-01T01:54:54.840Z,0
2017-03-01T01:57:27.766Z,0
2017-03-01T02:00:00.657Z,0
2017-03-01T02:02:34.061Z,0
2017-03-01T02:05:06.990Z,0
2017-03-01T02:07:39.541Z,0
2017-03-01T02:10:12.024Z,0
2017-03-01T02:12:44.955Z,0
2017-03-01T02:15:17.428Z,0
2017-03-01T02:17:50.368Z,0
2017-03-01T02:20:22.871Z,0
2017-03-01T02:22:55.347Z,0
2017-03-01T02:25:27.831Z,0
2017-03-01T02:28:00.322Z,0
2017-03-01T02:30:33.245Z,0
2017-03-01T02:33:06.297Z,0
2017-03-01T02:35:38.805Z,0
2017-03-01T02:38:11.286Z,0
2017-03-01T02:40:43.767Z,0
2017-03-01T02:43:16.246Z,0
2017-03-01T02:45:48.741Z,0
2017-03-01T02:48:22.141Z,0
2017-03-01T02:50:54.689Z,0
2017-03-01T02:53:27.608Z,0
2017-03-01T02:56:00.526Z,0
2017-03-01T02:58:33.435Z,0
2017-03-01T03:01:05.922Z,0
2017-03-01T03:03:38.829Z,0
2017-03-01T03:06:11.761Z,0
2017-03-01T03:08:44.251Z,0
2017-03-01T03:11:17.262Z,0
2017-03-01T03:13:49.759Z,0
2017-03-01T03:16:22.828Z,0
2017-03-01T03:18:56.049Z,0
2017-03-01T03:21:28.527Z,0
2017-03-01T03:24:01.035Z,0
2017-03-01T03:26:33.564Z,0
2017-03-01T03:29:06.054Z,0
2017-03-01T03:31:38.544Z,0
2017-03-01T03:34:11.486Z,0
2017-03-01T03:36:43.980Z,0
2017-03-01T03:39:16.479Z,0
2017-03-01T03:41:48.990Z,0
2017-03-01T03:44:21.672Z,0
2017-03-01T03:46:54.162Z,0
2017-03-01T03:49:27.179Z,0
2017-03-01T03:51:59.673Z,0
2017-03-01T03:54:32.159Z,0
2017-03-01T03:57:04.647Z,0
2017-03-01T03:59:37.568Z,0
2017-03-01T04:02:11.112Z,0
2017-03-01T04:04:44.235Z,0
2017-03-01T04:07:16.750Z,0
2017-03-01T04:09:49.669Z,0
2017-03-01T04:12:22.163Z,0
2017-03-01T04:14:55.077Z,0
2017-03-01T04:17:27.555Z,0
2017-03-01T04:20:00.043Z,0
2017-03-01T04:22:32.545Z,0
2017-03-01T04:25:05.017Z,0
2017-03-01T04:27:37.507Z,0
2017-03-01T04:30:09.988Z,0
2017-03-01T04:32:42.932Z,0
2017-03-01T04:35:15.855Z,0
2017-03-01T04:37:48.754Z,0
2017-03-01T04:40:21.261Z,0
2017-03-01T04:42:53.761Z,0
2017-03-01T04:45:26.256Z,0
2017-03-01T04:47:59.166Z,0
2017-03-01T04:50:31.659Z,0
2017-03-01T04:53:04.147Z,0
2017-03-01T04:55:37.500Z,0
2017-03-01T04:58:10.001Z,0
2017-03-01T05:00:42.507Z,0
2017-03-01T05:03:14.978Z,0
2017-03-01T05:05:47.482Z,0
2017-03-01T05:08:19.974Z,0
2017-03-01T05:10:52.483Z,0
2017-03-01T05:13:24.963Z,0
2017-03-01T05:15:57.469Z,0
2017-03-01T05:18:29.952Z,0
2017-03-01T05:21:02.437Z,0
2017-03-01T05:23:35.364Z,0
2017-03-01T05:26:07.874Z,0
2017-03-01T05:28:40.385Z,0
2017-03-01T05:31:12.902Z,0
2017-03-01T05:33:45.398Z,0
2017-03-01T05:36:18.325Z,0
2017-03-01T05:38:50.825Z,0
2017-03-01T05:41:23.314Z,0
2017-03-01T05:43:56.433Z,0
2017-03-01T05:46:28.916Z,0
2017-03-01T05:49:01.423Z,0
2017-03-01T05:51:34.343Z,0
2017-03-01T05:54:07.273Z,1
2017-03-01T05:56:40.194Z,1
2017-03-01T05:59:12.673Z,1
2017-03-01T06:01:45.163Z,1
2017-03-01T06:04:17.653Z,0
2017-03-01T06:06:50.166Z,1
2017-03-01T06:09:22.657Z,1
2017-03-01T06:11:55.577Z,1
2017-03-01T06:14:28.069Z,1
2017-03-01T06:17:00.563Z,2
2017-03-01T06:19:33.901Z,3
2017-03-01T06:22:06.437Z,3
2017-03-01T06:24:38.944Z,2
2017-03-01T06:27:11.864Z,4
2017-03-01T06:29:44.367Z,2
2017-03-01T06:32:17.278Z,4
2017-03-01T06:34:50.201Z,3
2017-03-01T06:37:23.123Z,5
2017-03-01T06:39:55.635Z,5
2017-03-01T06:42:28.123Z,3
2017-03-01T06:45:00.613Z,4
2017-03-01T06:47:33.587Z,3
2017-03-01T06:50:06.085Z,4
2017-03-01T06:52:38.579Z,5
2017-03-01T06:55:11.496Z,7
2017-03-01T06:57:43.970Z,7
2017-03-01T07:00:16.489Z,6
2017-03-01T07:02:48.991Z,8
2017-03-01T07:05:21.479Z,7
2017-03-01T07:07:54.011Z,11
2017-03-01T07:10:26.489Z,13
2017-03-01T07:12:58.987Z,18
2017-03-01T07:15:31.498Z,17
2017-03-01T07:18:03.990Z,26
2017-03-01T07:20:36.918Z,33
2017-03-01T07:23:09.423Z,48
2017-03-01T07:25:41.993Z,56
2017-03-01T07:28:14.479Z,58
2017-03-01T07:30:46.984Z,63
2017-03-01T07:33:19.475Z,63
2017-03-01T07:35:52.014Z,64
2017-03-01T07:38:24.512Z,70
2017-03-01T07:40:57.626Z,75
2017-03-01T07:43:30.105Z,84
2017-03-01T07:46:02.608Z,78
2017-03-01T07:48:35.124Z,83
2017-03-01T07:51:07.607Z,81
2017-03-01T07:53:40.117Z,70
2017-03-01T07:56:12.605Z,67
2017-03-01T07:58:45.108Z,66
2017-03-01T08:01:18.029Z,71
2017-03-01T08:03:50.957Z,69
2017-03-01T08:06:23.438Z,78
2017-03-01T08:08:55.948Z,81
2017-03-01T08:11:28.890Z,82
2017-03-01T08:14:01.401Z,83
2017-03-01T08:16:33.867Z,81
2017-03-01T08:19:06.395Z,80
2017-03-01T08:21:38.884Z,73
2017-03-01T08:24:11.821Z,77
2017-03-01T08:26:44.298Z,73
2017-03-01T08:29:16.829Z,72
2017-03-01T08:31:49.307Z,60
2017-03-01T08:34:21.812Z,41
2017-03-01T08:36:54.296Z,43
2017-03-01T08:39:26.784Z,40
2017-03-01T08:41:59.705Z,33
2017-03-01T08:44:32.197Z,36
2017-03-01T08:47:04.707Z,31
2017-03-01T08:49:37.624Z,47
2017-03-01T08:52:10.117Z,52
2017-03-01T08:54:43.031Z,62
2017-03-01T08:57:15.523Z,66
2017-03-01T08:59:48.031Z,64
2017-03-01T09:02:20.516Z,61
2017-03-01T09:04:53.188Z,70
2017-03-01T09:07:25.691Z,64
2017-03-01T09:09:58.169Z,78
2017-03-01T09:12:30.663Z,94
2017-03-01T09:15:03.160Z,84
2017-03-01T09:17:36.068Z,89
2017-03-01T09:20:08.558Z,99
2017-03-01T09:22:41.032Z,102
2017-03-01T09:25:13.540Z,83
2017-03-01T09:27:46.049Z,88
2017-03-01T09:30:18.557Z,74
2017-03-01T09:32:51.026Z,75
2017-03-01T09:35:23.509Z,58
2017-03-01T09:37:55.984Z,47
2017-03-01T09:40:28.467Z,43
2017-03-01T09:43:00.963Z,41
2017-03-01T09:45:34.303Z,46
2017-03-01T09:48:07.208Z,39
2017-03-01T09:50:39.701Z,43
2017-03-01T09:53:12.637Z,36
2017-03-01T09:55:45.140Z,36
2017-03-01T09:58:17.634Z,32
2017-03-01T10:00:50.126Z,32
2017-03-01T10:03:22.654Z,31
2017-03-01T10:05:55.148Z,28
2017-03-01T10:08:27.658Z,27
2017-03-01T10:11:00.249Z,31
2017-03-01T10:13:32.736Z,41
2017-03-01T10:16:05.678Z,41
2017-03-01T10:18:38.647Z,36
2017-03-01T10:21:11.550Z,53
2017-03-01T10:23:44.097Z,64
2017-03-01T10:26:16.614Z,67
2017-03-01T10:28:49.112Z,86
2017-03-01T10:31:21.585Z,84
2017-03-01T10:33:54.240Z,74
2017-03-01T10:36:26.748Z,79
2017-03-01T10:38:59.243Z,77
2017-03-01T10:41:31.740Z,72
2017-03-01T10:44:04.656Z,83
2017-03-01T10:46:37.577Z,67
2017-03-01T10:49:10.379Z,74
2017-03-01T10:51:42.909Z,64
2017-03-01T10:54:16.028Z,92
2017-03-01T10:56:48.536Z,77
2017-03-01T10:59:21.043Z,75
2017-03-01T11:01:53.535Z,64
2017-03-01T11:04:26.033Z,80
2017-03-01T11:06:59.043Z,82
2017-03-01T11:09:31.518Z,81
2017-03-01T11:12:04.033Z,81
2017-03-01T11:14:36.526Z,70
2017-03-01T11:17:09.013Z,65
2017-03-01T11:19:41.486Z,58
2017-03-01T11:22:13.985Z,49
2017-03-01T11:24:46.635Z,54
2017-03-01T11:27:19.156Z,42
2017-03-01T11:29:51.652Z,47
2017-03-01T11:32:24.681Z,37
2017-03-01T11:34:57.206Z,30
2017-03-01T11:37:29.836Z,34
2017-03-01T11:40:02.458Z,34
2017-03-01T11:42:35.805Z,63
2017-03-01T11:45:08.304Z,101
2017-03-01T11:47:40.800Z,92
2017-03-01T11:50:13.290Z,62
2017-03-01T11:52:45.787Z,54
2017-03-01T11:55:18.327Z,59
2017-03-01T11:57:50.828Z,51
2017-03-01T12:00:23.315Z,47
2017-03-01T12:02:55.785Z,48
2017-03-01T12:05:28.284Z,45
2017-03-01T12:08:00.773Z,41
2017-03-01T12:10:33.254Z,33
2017-03-01T12:13:05.733Z,33
2017-03-01T12:15:38.668Z,35
2017-03-01T12:18:11.652Z,31
2017-03-01T12:20:45.188Z,40
2017-03-01T12:23:17.811Z,52
2017-03-01T12:25:50.442Z,49
2017-03-01T12:28:23.362Z,57
2017-03-01T12:30:56.317Z,48
2017-03-01T12:33:28.814Z,53
2017-03-01T12:36:01.430Z,51
2017-03-01T12:38:34.360Z,48
2017-03-01T12:41:07.023Z,103
2017-03-01T12:43:39.954Z,101
2017-03-01T12:46:12.472Z,97
2017-03-01T12:48:44.947Z,93
2017-03-01T12:51:17.504Z,28
2017-03-01T12:53:50.056Z,30
2017-03-01T12:56:22.984Z,26
2017-03-01T12:58:55.473Z,19
2017-03-01T13:01:27.981Z,17
2017-03-01T13:04:00.884Z,22
2017-03-01T13:06:33.390Z,36
2017-03-01T13:09:05.869Z,30
2017-03-01T13:11:38.722Z,31
2017-03-01T13:14:11.244Z,27
2017-03-01T13:16:43.730Z,22
2017-03-01T13:19:16.237Z,19
2017-03-01T13:21:48.734Z,17
2017-03-01T13:24:21.228Z,16
2017-03-01T13:26:53.732Z,19
2017-03-01T13:29:26.224Z,20
2017-03-01T13:31:58.729Z,18
2017-03-01T13:34:31.691Z,18
2017-03-01T13:37:04.176Z,13
2017-03-01T13:39:36.678Z,10
2017-03-01T13:42:09.172Z,10
2017-03-01T13:44:41.677Z,9
2017-03-01T13:47:14.177Z,11
2017-03-01T13:49:46.667Z,13
2017-03-01T13:52:19.584Z,14
2017-03-01T13:54:52.065Z,16
2017-03-01T13:57:24.593Z,23
2017-03-01T13:59:57.087Z,31
2017-03-01T14:02:30.016Z,30
2017-03-01T14:05:02.504Z,38
2017-03-01T14:07:36.276Z,46
2017-03-01T14:10:09.640Z,46
2017-03-01T14:12:42.159Z,45
2017-03-01T14:15:14.678Z,48
2017-03-01T14:17:47.280Z,50
2017-03-01T14:20:19.991Z,53
2017-03-01T14:22:52.936Z,59
2017-03-01T14:25:26.063Z,65
2017-03-01T14:27:59.002Z,62
2017-03-01T14:30:31.490Z,62
2017-03-01T14:33:03.975Z,60
2017-03-01T14:35:36.460Z,59
2017-03-01T14:38:08.962Z,56
2017-03-01T14:40:41.463Z,57
2017-03-01T14:43:13.973Z,62
2017-03-01T14:45:46.453Z,59
2017-03-01T14:48:18.964Z,80
2017-03-01T14:50:52.514Z,220
2017-03-01T14:53:25.008Z,228
2017-03-01T14:55:57.505Z,194
2017-03-01T14:58:29.997Z,214
2017-03-01T15:01:02.483Z,205
2017-03-01T15:03:35.018Z,54
2017-03-01T15:06:07.525Z,50
2017-03-01T15:08:40.031Z,41
2017-03-01T15:11:12.969Z,39
2017-03-01T15:13:46.332Z,41
2017-03-01T15:16:19.676Z,37
2017-03-01T15:18:52.181Z,35
2017-03-01T15:21:24.675Z,33
2017-03-01T15:23:57.178Z,33
2017-03-01T15:26:29.662Z,38
2017-03-01T15:29:02.176Z,33
2017-03-01T15:31:34.680Z,33
2017-03-01T15:34:07.173Z,35
2017-03-01T15:36:39.677Z,28
2017-03-01T15:39:12.170Z,26
2017-03-01T15:41:44.654Z,28
2017-03-01T15:44:17.155Z,29
2017-03-01T15:46:49.864Z,28
2017-03-01T15:49:22.358Z,28
2017-03-01T15:51:54.845Z,25
2017-03-01T15:54:27.774Z,26
2017-03-01T15:57:00.855Z,25
2017-03-01T15:59:33.769Z,24
2017-03-01T16:02:06.262Z,23
2017-03-01T16:04:38.856Z,22
2017-03-01T16:07:11.781Z,20
2017-03-01T16:09:44.868Z,19
2017-03-01T16:12:17.346Z,18
2017-03-01T16:14:49.833Z,15
2017-03-01T16:17:22.334Z,16
2017-03-01T16:19:55.247Z,16
2017-03-01T16:22:27.743Z,14
2017-03-01T16:25:00.214Z,13
2017-03-01T16:27:32.710Z,12
2017-03-01T16:30:05.216Z,12
2017-03-01T16:32:37.702Z,9
2017-03-01T16:35:10.640Z,8
2017-03-01T16:37:43.130Z,8
2017-03-01T16:40:15.603Z,8
2017-03-01T16:42:48.094Z,6
2017-03-01T16:45:21.004Z,4
2017-03-01T16:47:53.487Z,4
2017-03-01T16:50:25.970Z,3
2017-03-01T16:52:58.475Z,3
2017-03-01T16:55:30.955Z,3
2017-03-01T16:58:03.885Z,1
2017-03-01T17:00:36.380Z,0
2017-03-01T17:03:08.897Z,2
2017-03-01T17:05:41.402Z,1
2017-03-01T17:08:13.927Z,1
2017-03-01T17:10:46.838Z,0
2017-03-01T17:13:19.336Z,0
2017-03-01T17:15:51.866Z,0
2017-03-01T17:18:24.363Z,0
2017-03-01T17:20:56.851Z,0
2017-03-01T17:23:29.343Z,0
2017-03-01T17:26:02.248Z,0
2017-03-01T17:28:34.737Z,0
2017-03-01T17:31:07.218Z,0
2017-03-01T17:33:39.724Z,0
2017-03-01T17:36:12.619Z,0
2017-03-01T17:38:45.119Z,0
2017-03-01T17:41:18.049Z,0
2017-03-01T17:43:50.558Z,0
2017-03-01T17:46:23.069Z,0
2017-03-01T17:48:55.553Z,0
2017-03-01T17:51:28.875Z,0
2017-03-01T17:54:01.376Z,0
2017-03-01T17:56:34.294Z,0
2017-03-01T17:59:06.782Z,0
2017-03-01T18:01:39.272Z,0
2017-03-01T18:04:12.362Z,0
2017-03-01T18:06:44.864Z,0
2017-03-01T18:09:17.572Z,0
2017-03-01T18:11:50.272Z,0
2017-03-01T18:14:22.775Z,0
2017-03-01T18:16:55.695Z,0
2017-03-01T18:19:28.188Z,0
2017-03-01T18:22:00.681Z,0
2017-03-01T18:24:34.021Z,0
2017-03-01T18:27:06.509Z,0
2017-03-01T18:29:39.025Z,0
2017-03-01T18:32:11.957Z,0
2017-03-01T18:34:44.455Z,0
2017-03-01T18:37:16.934Z,0
2017-03-01T18:39:49.736Z,0
2017-03-01T18:42:22.237Z,0
2017-03-01T18:44:54.725Z,0
2017-03-01T18:47:27.220Z,0
2017-03-01T18:49:59.693Z,0
2017-03-01T18:52:32.594Z,0
2017-03-01T18:55:05.083Z,0
2017-03-01T18:57:37.994Z,0
2017-03-01T19:00:10.466Z,0
2017-03-01T19:02:42.957Z,0
2017-03-01T19:05:15.457Z,0
2017-03-01T19:07:48.376Z,0
2017-03-01T19:10:20.880Z,0
2017-03-01T19:12:53.372Z,0
2017-03-01T19:15:25.871Z,0
2017-03-01T19:17:58.371Z,0
2017-03-01T19:20:30.861Z,0
2017-03-01T19:23:03.363Z,0
2017-03-01T19:25:35.886Z,0
2017-03-01T19:28:08.851Z,0
2017-03-01T19:30:41.337Z,0
2017-03-01T19:33:13.833Z,0
2017-03-01T19:35:46.486Z,0
2017-03-01T19:38:18.966Z,0
2017-03-01T19:40:51.476Z,0
2017-03-01T19:43:23.987Z,0
2017-03-01T19:45:56.468Z,0
2017-03-01T19:48:29.391Z,0
2017-03-01T19:51:02.326Z,0
2017-03-01T19:53:34.834Z,0
2017-03-01T19:56:07.332Z,0
2017-03-01T19:58:40.301Z,0
2017-03-01T20:01:12.779Z,0
2017-03-01T20:03:45.283Z,0
2017-03-01T20:06:18.199Z,0
2017-03-01T20:08:50.712Z,0
2017-03-01T20:11:23.215Z,0
2017-03-01T20:13:56.136Z,0
2017-03-01T20:16:28.844Z,0
2017-03-01T20:19:01.333Z,0
2017-03-01T20:21:34.689Z,0
2017-03-01T20:24:07.175Z,0
2017-03-01T20:26:39.678Z,0
2017-03-01T20:29:12.178Z,0
2017-03-01T20:31:45.090Z,0
2017-03-01T20:34:17.579Z,0
2017-03-01T20:36:50.068Z,0
2017-03-01T20:39:22.991Z,0
2017-03-01T20:41:55.904Z,0
2017-03-01T20:44:28.829Z,0
2017-03-01T20:47:01.347Z,0
2017-03-01T20:49:34.258Z,0
2017-03-01T20:52:06.751Z,0
2017-03-01T20:54:39.288Z,0
2017-03-01T20:57:11.790Z,0
2017-03-01T20:59:44.717Z,0
2017-03-01T21:02:17.210Z,0
2017-03-01T21:04:49.719Z,0
2017-03-01T21:07:22.219Z,0
2017-03-01T21:09:54.737Z,0
2017-03-01T21:12:27.254Z,0
2017-03-01T21:14:59.766Z,0
2017-03-01T21:17:32.257Z,0
2017-03-01T21:20:04.766Z,0
2017-03-01T21:22:37.662Z,0
2017-03-01T21:25:10.154Z,0
2017-03-01T21:27:42.665Z,0
2017-03-01T21:30:15.132Z,0
2017-03-01T21:32:47.635Z,0
2017-03-01T21:35:20.370Z,0
2017-03-01T21:37:53.320Z,0
2017-03-01T21:40:25.842Z,0
2017-03-01T21:42:58.337Z,0
2017-03-01T21:45:30.852Z,0
2017-03-01T21:48:03.774Z,0
2017-03-01T21:50:36.271Z,0
2017-03-01T21:53:08.758Z,0
2017-03-01T21:55:41.227Z,0
2017-03-01T21:58:14.160Z,0
2017-03-01T22:00:46.670Z,0
2017-03-01T22:03:19.171Z,0
2017-03-01T22:05:51.670Z,0
2017-03-01T22:08:24.154Z,0
2017-03-01T22:10:56.648Z,0
2017-03-01T22:13:29.131Z,0
2017-03-01T22:16:01.824Z,0
2017-03-01T22:18:34.305Z,0
2017-03-01T22:21:06.804Z,0
2017-03-01T22:23:39.730Z,0
2017-03-01T22:26:12.218Z,0
2017-03-01T22:28:44.715Z,0
2017-03-01T22:31:17.195Z,0
2017-03-01T22:33:50.118Z,0
2017-03-01T22:36:23.486Z,0
2017-03-01T22:38:55.998Z,0
2017-03-01T22:41:28.507Z,0
2017-03-01T22:44:01.007Z,0
2017-03-01T22:46:33.509Z,0
2017-03-01T22:49:05.986Z,0
2017-03-01T22:51:38.483Z,0
2017-03-01T22:54:11.837Z,0
2017-03-01T22:56:44.745Z,0
2017-03-01T22:59:17.230Z,0
2017-03-01T23:01:50.157Z,0
2017-03-01T23:04:23.048Z,0
2017-03-01T23:06:55.960Z,0
2017-03-01T23:09:29.311Z,0
2017-03-01T23:12:01.804Z,0
2017-03-01T23:14:34.332Z,0
2017-03-01T23:17:07.256Z,0
2017-03-01T23:19:39.979Z,0
2017-03-01T23:22:12.467Z,0
2017-03-01T23:24:44.968Z,0
2017-03-01T23:27:17.468Z,0
2017-03-01T23:29:50.397Z,0
2017-03-01T23:32:22.866Z,0
2017-03-01T23:34:56.198Z,0
2017-03-01T23:37:28.746Z,0
2017-03-01T23:40:01.260Z,0
2017-03-01T23:42:34.180Z,0
2017-03-01T23:45:07.088Z,0
2017-03-01T23:47:39.587Z,0
2017-03-01T23:50:12.083Z,0
2017-03-01T23:52:44.561Z,0
2017-03-01T23:55:17.053Z,0
2017-03-01T23:57:49.960Z,0
